Time;durP1;ratioP1;P1;durP2;ratioP2;P2;SDS_P1;SDS_P2;PMS_P1;PMS_P2;Temp;Humidity;BMP_temperature;BMP_pressure;BME280_temperature;BME280_humidity;BME280_pressure;Samples;Min_cycle;Max_cycle;Signal;HPM_P1;HPM_P2
2024/04/01 00:01:39;;;;;;;1.40;0.77;;;16.70;99.90;;;16.77;52.78;99054.69;6071815;22;122943;-44
2024/04/01 00:04:04;;;;;;;0.73;0.40;;;16.70;99.90;;;16.81;52.50;99045.47;6086243;22;97467;-45
2024/04/01 00:06:31;;;;;;;0.90;0.40;;;16.80;99.90;;;16.83;52.36;99051.50;6061086;22;98239;-42
2024/04/01 00:08:56;;;;;;;0.73;0.40;;;16.90;99.90;;;16.88;52.52;99054.59;6003983;22;99528;-43
2024/04/01 00:11:22;;;;;;;0.80;0.60;;;16.90;99.90;;;16.89;52.31;99056.28;6072744;22;97900;-43
2024/04/01 00:13:49;;;;;;;0.60;0.40;;;16.90;99.90;;;16.88;52.38;99048.44;6072795;22;97493;-43
2024/04/01 00:16:15;;;;;;;0.67;0.40;;;16.90;99.90;;;16.87;52.58;99038.75;6092648;22;97829;-43
2024/04/01 00:18:41;;;;;;;0.50;0.40;;;16.90;99.90;;;16.79;52.85;99033.28;6017919;22;100551;-44
2024/04/01 00:21:06;;;;;;;0.30;0.20;;;16.70;99.90;;;16.77;52.90;99020.06;6055036;22;98286;-36
2024/04/01 00:23:36;;;;;;;0.90;0.53;;;16.60;99.90;;;16.75;52.78;99011.38;6055739;22;97503;-42
2024/04/01 00:26:04;;;;;;;0.63;0.27;;;16.60;99.90;;;16.77;52.75;98995.25;6056408;22;98487;-44
2024/04/01 00:28:33;;;;;;;0.33;0.33;;;16.70;99.90;;;16.80;52.40;98982.56;6019205;22;126285;-43
2024/04/01 00:30:59;;;;;;;1.47;0.67;;;16.70;99.90;;;16.85;52.54;98975.00;6043370;22;129420;-37
2024/04/01 00:33:24;;;;;;;0.60;0.40;;;16.80;99.90;;;16.86;52.55;98982.00;6052567;22;98277;-35
2024/04/01 00:35:50;;;;;;;0.97;0.40;;;16.90;99.90;;;16.87;52.38;98983.69;6079486;22;98106;-37
2024/04/01 00:38:16;;;;;;;0.67;0.40;;;16.90;99.90;;;16.88;52.41;98980.03;6048719;22;119979;-43
2024/04/01 00:40:42;;;;;;;0.53;0.40;;;16.80;99.90;;;16.88;52.22;98985.38;6050609;22;98063;-37
2024/04/01 00:43:09;;;;;;;0.93;0.47;;;16.90;99.90;;;16.89;52.30;98986.22;6083364;22;107073;-37
2024/04/01 00:45:40;;;;;;;0.37;0.30;;;16.90;99.90;;;16.87;52.17;98989.00;6082301;22;98360;-36
2024/04/01 00:48:08;;;;;;;1.23;0.37;;;16.80;99.90;;;16.86;52.31;98992.66;6039665;22;103716;-37
2024/04/01 00:50:37;;;;;;;0.30;0.20;;;16.80;99.90;;;16.85;52.61;98984.81;6045791;22;97978;-36
2024/04/01 00:53:04;;;;;;;0.50;0.50;;;16.80;99.90;;;16.83;52.62;98989.41;6041363;22;97595;-38
2024/04/01 00:55:35;;;;;;;1.50;0.40;;;16.80;99.90;;;16.85;52.42;98984.81;6032631;22;98251;-37
2024/04/01 00:58:02;;;;;;;0.20;0.20;;;16.80;99.90;;;16.89;52.47;98986.22;6065397;22;104709;-36
2024/04/01 01:00:29;;;;;;;0.50;0.40;;;16.90;99.90;;;16.92;52.23;98983.25;6072661;22;98965;-36
2024/04/01 01:02:57;;;;;;;1.53;0.40;;;16.90;99.90;;;16.93;52.14;98988.47;6082758;22;98019;-37
2024/04/01 01:05:24;;;;;;;0.30;0.17;;;17.00;99.90;;;16.93;52.07;98983.16;6070859;22;98983;-36
2024/04/01 01:07:50;;;;;;;1.10;0.40;;;16.90;99.90;;;16.94;51.98;98974.19;6013177;22;102025;-37
2024/04/01 01:10:17;;;;;;;0.60;0.30;;;17.00;99.90;;;16.98;52.01;98973.91;6060658;22;98929;-36
2024/04/01 01:12:42;;;;;;;0.20;0.20;;;17.00;99.90;;;16.99;52.06;98970.28;6048265;22;106070;-35
2024/04/01 01:15:12;;;;;;;0.40;0.40;;;17.00;99.90;;;16.98;52.18;98979.25;6031817;22;107714;-36
2024/04/01 01:17:38;;;;;;;0.37;0.30;;;17.00;99.90;;;16.95;52.00;98969.72;6066666;22;103753;-37
2024/04/01 01:20:11;;;;;;;0.33;0.20;;;16.90;99.90;;;16.93;52.04;98967.19;6068387;22;98498;-36
2024/04/01 01:22:38;;;;;;;1.03;0.27;;;16.90;99.90;;;16.89;52.47;98963.09;6019294;22;105494;-36
2024/04/01 01:25:07;;;;;;;0.57;0.37;;;16.90;99.90;;;16.84;52.60;98957.34;6068355;22;97555;-37
2024/04/01 01:27:39;;;;;;;1.50;0.33;;;16.80;99.90;;;16.75;52.85;98963.44;6036999;22;99895;-36
2024/04/01 01:30:15;;;;;;;1.37;0.50;;;16.60;99.90;;;16.63;53.32;98960.00;6059931;22;100901;-36
2024/04/01 01:32:52;;;;;;;0.50;0.20;;;16.30;99.90;;;16.47;54.56;98964.13;6055775;22;97375;-35
2024/04/01 01:35:22;;;;;;;0.50;0.37;;;16.20;99.90;;;16.45;53.63;98955.44;6035872;22;97409;-38
2024/04/01 01:37:49;;;;;;;0.73;0.30;;;16.00;99.90;;;16.40;53.84;98952.34;6050121;22;104450;-35
2024/04/01 01:40:15;;;;;;;0.60;0.20;;;16.00;99.90;;;16.36;53.96;98933.16;6068144;22;99788;-35
2024/04/01 01:42:41;;;;;;;2.10;0.63;;;16.00;99.90;;;16.32;54.60;98940.53;6023828;22;98056;-36
2024/04/01 01:45:08;;;;;;;3.53;0.50;;;16.00;99.90;;;16.28;54.62;98936.47;6035901;22;107972;-36
2024/04/01 01:47:36;;;;;;;0.30;0.23;;;15.90;99.90;;;16.22;54.50;98929.03;6069002;22;99632;-35
2024/04/01 01:50:04;;;;;;;0.70;0.40;;;15.80;99.90;;;16.21;54.30;98927.34;6052688;22;98617;-36
2024/04/01 01:52:30;;;;;;;2.70;0.40;;;15.80;99.90;;;16.14;54.71;98926.16;6040619;22;101756;-37
2024/04/01 01:54:56;;;;;;;0.77;0.20;;;15.70;99.90;;;16.01;55.92;98922.88;6092853;22;97793;-36
2024/04/01 01:57:23;;;;;;;0.50;0.33;;;15.60;99.90;;;15.96;55.38;98917.97;6082435;22;116042;-37
2024/04/01 01:59:49;;;;;;;1.40;0.30;;;15.50;99.90;;;15.93;55.85;98914.72;6094339;22;99629;-35
2024/04/01 02:02:16;;;;;;;0.47;0.37;;;15.40;99.90;;;15.92;55.16;98907.72;6107632;22;97362;-36
2024/04/01 02:04:42;;;;;;;0.20;0.20;;;15.40;99.90;;;15.94;55.32;98897.78;6110670;22;97707;-36
2024/04/01 02:07:08;;;;;;;0.20;0.20;;;15.50;99.90;;;15.94;55.44;98905.78;6108568;22;97500;-36
2024/04/01 02:09:35;;;;;;;1.67;0.30;;;15.50;99.90;;;15.91;55.81;98904.22;6059663;22;97637;-34
2024/04/01 02:12:02;;;;;;;0.70;0.27;;;15.50;99.90;;;15.85;55.53;98898.56;6108575;22;97640;-34
2024/04/01 02:14:28;;;;;;;0.50;0.20;;;15.40;99.90;;;15.92;55.46;98899.75;6111700;22;97446;-36
2024/04/01 02:16:54;;;;;;;0.63;0.30;;;15.50;99.90;;;15.95;55.18;98899.47;6093682;22;106582;-34
2024/04/01 02:19:19;;;;;;;0.30;0.20;;;15.60;99.90;;;15.97;54.97;98897.53;6096625;22;114119;-36
2024/04/01 02:21:48;;;;;;;0.20;0.20;;;15.60;99.90;;;15.96;55.37;98898.50;6109709;22;97435;-34
2024/04/01 02:24:20;;;;;;;1.00;0.40;;;15.60;99.90;;;16.00;55.10;98905.22;6091328;22;108388;-37
2024/04/01 02:26:47;;;;;;;0.33;0.20;;;15.60;99.90;;;16.03;54.79;98894.31;6067756;22;103087;-35
2024/04/01 02:29:16;;;;;;;0.43;0.20;;;15.70;99.90;;;16.04;55.02;98893.34;6087665;22;101560;-37
2024/04/01 02:31:42;;;;;;;0.20;0.20;;;15.80;99.90;;;16.06;54.98;98883.47;6039531;22;97441;-34
2024/04/01 02:34:08;;;;;;;0.40;0.20;;;15.70;99.90;;;16.07;54.69;98887.81;6107408;22;103081;-36
2024/04/01 02:36:35;;;;;;;1.93;0.50;;;15.80;99.90;;;16.05;54.71;98893.22;6108029;22;119882;-35
2024/04/01 02:39:02;;;;;;;1.07;0.20;;;15.70;99.90;;;16.09;54.61;98895.63;6106406;22;101641;-37
2024/04/01 02:41:28;;;;;;;0.87;0.30;;;15.80;99.90;;;16.09;54.73;98901.81;6105784;22;97752;-37
2024/04/01 02:43:54;;;;;;;0.83;0.47;;;15.70;99.90;;;16.07;54.70;98903.75;6033312;22;99030;-36
2024/04/01 02:46:20;;;;;;;0.43;0.20;;;15.70;99.90;;;16.03;54.79;98903.16;6092223;22;98936;-36
2024/04/01 02:48:46;;;;;;;0.67;0.20;;;15.60;99.90;;;16.01;54.88;98896.28;6101363;22;100280;-43
2024/04/01 02:51:15;;;;;;;1.37;0.40;;;15.60;99.90;;;15.99;55.22;98883.13;6096374;22;97840;-37
2024/04/01 02:53:47;;;;;;;0.67;0.40;;;15.60;99.90;;;15.93;55.34;98888.13;6107662;22;99762;-35
2024/04/01 02:56:16;;;;;;;0.40;0.20;;;15.50;99.90;;;15.95;55.02;98888.84;6059709;22;100527;-40
2024/04/01 02:58:45;;;;;;;0.70;0.20;;;15.50;99.90;;;15.96;55.02;98874.56;6084193;22;98915;-37
2024/04/01 03:01:12;;;;;;;1.00;0.30;;;15.60;99.90;;;15.96;55.23;98863.94;6108559;22;103610;-37
2024/04/01 03:03:38;;;;;;;0.80;0.50;;;15.60;99.90;;;15.90;55.35;98853.81;6028900;22;99575;-34
2024/04/01 03:06:06;;;;;;;0.83;0.40;;;15.50;99.90;;;15.71;56.31;98855.41;6108109;22;98364;-36
2024/04/01 03:08:32;;;;;;;0.47;0.20;;;15.30;99.90;;;15.69;56.30;98862.66;6105678;22;101654;-35
2024/04/01 03:11:02;;;;;;;0.50;0.20;;;15.20;99.90;;;15.68;56.34;98860.13;6105964;22;97462;-35
2024/04/01 03:13:29;;;;;;;0.60;0.23;;;15.10;99.90;;;15.69;56.11;98862.66;6109465;22;99529;-36
2024/04/01 03:15:56;;;;;;;0.50;0.40;;;15.10;99.90;;;15.67;56.15;98861.09;6073399;22;99647;-35
2024/04/01 03:18:23;;;;;;;2.27;0.83;;;15.10;99.90;;;15.57;56.72;98858.34;6093319;22;97528;-36
2024/04/01 03:20:50;;;;;;;0.90;0.30;;;15.00;99.90;;;15.58;56.24;98853.88;6110019;22;97402;-36
2024/04/01 03:23:16;;;;;;;0.50;0.40;;;15.00;99.90;;;15.59;56.48;98856.44;6107517;22;97264;-35
2024/04/01 03:25:49;;;;;;;0.40;0.23;;;15.10;99.90;;;15.46;56.97;98845.97;6074794;22;98079;-37
2024/04/01 03:28:15;;;;;;;2.13;0.47;;;14.90;99.90;;;15.32;57.58;98846.28;6092073;22;97631;-35
2024/04/01 03:30:43;;;;;;;0.73;0.20;;;14.80;99.90;;;15.42;57.06;98846.34;6063250;22;106217;-35
2024/04/01 03:33:09;;;;;;;0.57;0.40;;;14.80;99.90;;;15.43;56.94;98850.69;6106804;22;97840;-35
2024/04/01 03:35:34;;;;;;;0.53;0.30;;;14.90;99.90;;;15.46;57.00;98839.81;6089502;22;103312;-36
2024/04/01 03:38:00;;;;;;;0.10;0.10;;;14.90;99.90;;;15.40;56.79;98833.19;6091052;22;97287;-35
2024/04/01 03:40:26;;;;;;;0.73;0.30;;;14.90;99.90;;;15.39;57.00;98838.66;6096236;22;112130;-35
2024/04/01 03:42:54;;;;;;;0.70;0.30;;;14.80;99.90;;;15.38;57.24;98836.97;6070747;22;101123;-37
2024/04/01 03:45:20;;;;;;;1.20;0.60;;;14.80;99.90;;;15.28;57.49;98831.56;6106231;22;99340;-36
2024/04/01 03:47:46;;;;;;;1.53;0.27;;;14.70;99.90;;;15.29;57.50;98840.38;6108116;22;126067;-37
2024/04/01 03:50:11;;;;;;;0.77;0.30;;;14.70;99.90;;;15.27;57.68;98850.28;6057079;22;97402;-35
2024/04/01 03:52:38;;;;;;;0.73;0.50;;;14.70;99.90;;;15.22;57.80;98832.09;6112692;22;97602;-35
2024/04/01 03:55:04;;;;;;;1.40;0.40;;;14.60;99.90;;;15.31;57.19;98841.09;6078957;22;98984;-37
2024/04/01 03:57:30;;;;;;;1.10;0.43;;;14.70;99.90;;;15.32;57.18;98842.78;6082301;22;100096;-36
2024/04/01 03:59:56;;;;;;;2.00;0.40;;;14.70;99.90;;;15.36;57.01;98833.59;6109620;22;108635;-36
2024/04/01 04:02:21;;;;;;;1.07;0.60;;;14.80;99.90;;;15.36;56.90;98831.78;6095170;22;108684;-36
2024/04/01 04:04:50;;;;;;;0.90;0.40;;;14.80;99.90;;;15.33;57.04;98847.97;6091180;22;123764;-36
2024/04/01 04:07:18;;;;;;;0.60;0.30;;;14.70;99.90;;;15.32;57.31;98856.06;6055577;22;99481;-35
2024/04/01 04:09:48;;;;;;;0.13;0.13;;;14.70;99.90;;;15.37;57.14;98845.91;6042065;22;97198;-37
2024/04/01 04:12:13;;;;;;;1.00;0.30;;;14.80;99.90;;;15.43;56.99;98842.72;6042407;22;97462;-34
2024/04/01 04:14:39;;;;;;;0.60;0.23;;;15.00;99.90;;;15.39;57.07;98849.28;6051491;22;116326;-37
2024/04/01 04:17:05;;;;;;;1.97;0.50;;;14.90;99.90;;;15.37;57.24;98856.53;6070556;22;103371;-37
2024/04/01 04:19:31;;;;;;;2.00;0.40;;;14.80;99.90;;;15.33;57.23;98865.72;6106775;22;100779;-36
2024/04/01 04:21:57;;;;;;;0.40;0.37;;;14.70;99.90;;;15.36;57.06;98860.16;6112147;22;97357;-35
2024/04/01 04:24:25;;;;;;;0.60;0.30;;;14.70;99.90;;;15.39;57.05;98865.22;6108548;22;101976;-34
2024/04/01 04:26:52;;;;;;;0.73;0.37;;;14.80;99.90;;;15.34;57.41;98862.94;6081059;22;98888;-37
2024/04/01 04:29:18;;;;;;;0.93;0.50;;;14.80;99.90;;;15.33;57.25;98868.38;6108710;22;99326;-35
2024/04/01 04:31:57;;;;;;;0.70;0.37;;;14.70;99.90;;;15.30;57.45;98863.31;6067984;22;97582;-36
2024/04/01 04:34:23;;;;;;;0.10;0.10;;;14.70;99.90;;;15.34;57.11;98872.72;6040749;22;102951;-34
2024/04/01 04:36:50;;;;;;;0.40;0.30;;;14.70;99.90;;;15.27;57.73;98871.53;6109946;22;105175;-35
2024/04/01 04:39:24;;;;;;;1.33;0.30;;;14.70;99.90;;;15.18;58.17;98878.44;6111449;22;97615;-36
2024/04/01 04:41:51;;;;;;;0.30;0.20;;;14.60;99.90;;;15.27;57.51;98887.47;6096179;22;98143;-36
2024/04/01 04:44:22;;;;;;;1.03;0.50;;;14.70;99.90;;;15.32;57.16;98880.81;6085170;22;98015;-36
2024/04/01 04:46:48;;;;;;;0.47;0.20;;;14.80;99.90;;;15.41;56.98;98887.19;6095578;22;101431;-34
2024/04/01 04:49:14;;;;;;;1.13;0.30;;;14.90;99.90;;;15.45;56.92;98880.63;6110869;22;106816;-36
2024/04/01 04:51:42;;;;;;;0.20;0.20;;;15.00;99.90;;;15.52;56.48;98881.81;6080725;22;102693;-36
2024/04/01 04:54:08;;;;;;;0.20;0.20;;;15.10;99.90;;;15.57;56.59;98884.91;6111550;22;104034;-35
2024/04/01 04:56:34;;;;;;;0.80;0.40;;;15.20;99.90;;;15.60;56.22;98890.00;6083503;22;109910;-36
2024/04/01 04:59:00;;;;;;;0.30;0.10;;;15.20;99.90;;;15.61;56.41;98891.69;6098499;22;101522;-36
2024/04/01 05:01:26;;;;;;;0.47;0.20;;;15.10;99.90;;;15.65;56.02;98893.13;6097280;22;106260;-38
2024/04/01 05:03:54;;;;;;;1.50;0.47;;;15.20;99.90;;;15.66;55.95;98892.16;6081620;22;112929;-36
2024/04/01 05:06:19;;;;;;;3.00;0.50;;;15.20;99.90;;;15.66;56.30;98894.81;6067106;22;97641;-35
2024/04/01 05:08:45;;;;;;;0.80;0.47;;;15.20;99.90;;;15.69;56.01;98891.06;5999834;22;102247;-36
2024/04/01 05:11:14;;;;;;;0.37;0.33;;;15.20;99.90;;;15.72;55.80;98893.44;6005482;22;111574;-36
2024/04/01 05:13:44;;;;;;;0.40;0.27;;;15.30;99.90;;;15.76;55.77;98894.88;6098150;22;102323;-35
2024/04/01 05:16:14;;;;;;;1.00;0.37;;;15.40;99.90;;;15.76;55.69;98901.03;6111154;22;106592;-36
2024/04/01 05:18:41;;;;;;;1.40;0.40;;;15.40;99.90;;;15.77;55.58;98897.41;6094435;22;97527;-37
2024/04/01 05:21:08;;;;;;;0.50;0.40;;;15.40;99.90;;;15.75;55.95;98904.66;6111697;22;97841;-35
2024/04/01 05:23:34;;;;;;;0.57;0.30;;;15.30;99.90;;;15.75;55.79;98909.97;6113205;22;98491;-37
2024/04/01 05:25:59;;;;;;;0.43;0.17;;;15.30;99.90;;;15.77;55.89;98913.38;6099832;22;120978;-36
2024/04/01 05:28:28;;;;;;;1.03;0.40;;;15.30;99.90;;;15.75;55.97;98914.44;6114354;22;97463;-37
2024/04/01 05:30:54;;;;;;;0.37;0.30;;;15.30;99.90;;;15.77;55.68;98924.00;6096482;22;103215;-36
2024/04/01 05:33:23;;;;;;;1.60;0.30;;;15.40;99.90;;;15.81;55.48;98918.41;6072105;22;100711;-35
2024/04/01 05:35:49;;;;;;;0.40;0.27;;;15.40;99.90;;;15.84;55.46;98918.16;6110132;22;108905;-36
2024/04/01 05:38:18;;;;;;;0.20;0.10;;;15.40;99.90;;;15.86;55.69;98921.53;6097759;22;96984;-35
2024/04/01 05:40:46;;;;;;;0.10;0.10;;;15.50;99.90;;;15.90;55.52;98933.56;6059684;22;97494;-35
2024/04/01 05:43:12;;;;;;;1.43;0.30;;;15.60;99.90;;;15.94;55.19;98930.53;6090799;22;100116;-36
2024/04/01 05:45:37;;;;;;;0.60;0.30;;;15.60;99.90;;;15.98;55.38;98931.13;6109457;22;97539;-35
2024/04/01 05:48:04;;;;;;;0.17;0.17;;;15.70;99.90;;;16.02;55.06;98935.19;6095943;22;97142;-36
2024/04/01 05:50:29;;;;;;;0.30;0.20;;;15.70;99.90;;;16.03;55.12;98935.06;6063685;22;105529;-35
2024/04/01 05:52:55;;;;;;;0.67;0.30;;;15.70;99.90;;;16.06;54.81;98939.31;6066128;22;110200;-40
2024/04/01 05:55:21;;;;;;;1.73;0.30;;;15.80;99.90;;;16.09;54.90;98943.50;6068591;22;117480;-35
2024/04/01 05:57:47;;;;;;;0.60;0.30;;;15.80;99.90;;;16.12;54.98;98943.25;6097370;22;103952;-38
2024/04/01 06:00:14;;;;;;;0.33;0.20;;;15.80;99.90;;;16.12;54.83;98948.56;6070270;22;99830;-35
2024/04/01 06:02:40;;;;;;;0.70;0.67;;;15.90;99.90;;;16.10;55.26;98943.38;6104362;22;101873;-36
2024/04/01 06:05:06;;;;;;;1.90;0.77;;;15.80;99.90;;;16.07;55.43;98946.31;6062391;22;97820;-35
2024/04/01 06:07:32;;;;;;;1.17;0.70;;;15.70;99.90;;;16.07;55.66;98946.31;6097878;22;97419;-35
2024/04/01 06:09:58;;;;;;;4.07;0.60;;;15.70;99.90;;;15.97;56.61;98945.38;6085295;22;97459;-37
2024/04/01 06:12:28;;;;;;;4.17;0.60;;;15.50;99.90;;;15.91;57.68;98945.88;6075353;22;103528;-36
2024/04/01 06:14:54;;;;;;;1.43;0.60;;;15.50;99.90;;;15.87;56.66;98955.09;6108139;22;102225;-36
2024/04/01 06:17:20;;;;;;;4.23;0.63;;;15.40;99.90;;;15.91;55.94;98956.53;6108771;22;111573;-37
2024/04/01 06:19:46;;;;;;;5.13;0.63;;;15.40;99.90;;;15.76;56.96;98956.84;6084950;22;97695;-36
2024/04/01 06:22:12;;;;;;;1.07;0.40;;;15.30;99.90;;;15.75;56.78;98946.34;6109026;22;102658;-37
2024/04/01 06:24:38;;;;;;;2.87;0.63;;;15.20;99.90;;;15.73;56.81;98954.44;6110599;22;101045;-37
2024/04/01 06:27:05;;;;;;;4.03;1.00;;;15.20;99.90;;;15.73;56.82;98954.44;6095282;22;97442;-36
2024/04/01 06:29:33;;;;;;;0.93;0.30;;;15.20;99.90;;;15.71;56.32;98943.09;6094628;22;104610;-36
2024/04/01 06:31:58;;;;;;;1.40;0.60;;;15.20;99.90;;;15.65;58.82;98946.28;6108346;22;105081;-37
2024/04/01 06:34:24;;;;;;;0.90;0.53;;;15.20;99.90;;;15.67;57.02;98949.66;6108418;22;115051;-35
2024/04/01 06:36:50;;;;;;;2.20;0.70;;;15.10;99.90;;;15.67;57.16;98949.66;6092104;22;96983;-36
2024/04/01 06:39:16;;;;;;;1.03;0.50;;;15.20;99.90;;;15.68;57.18;98951.34;6081764;22;97406;-36
2024/04/01 06:41:45;;;;;;;2.30;0.50;;;15.20;99.90;;;15.65;57.54;98956.06;6063742;22;117184;-34
2024/04/01 06:44:11;;;;;;;0.50;0.40;;;15.20;99.90;;;15.64;57.30;98952.56;6033045;22;97335;-36
2024/04/01 06:46:37;;;;;;;0.67;0.47;;;15.10;99.90;;;15.57;59.04;98964.63;6069947;22;97653;-36
2024/04/01 06:49:04;;;;;;;0.43;0.30;;;15.10;99.90;;;15.60;58.13;98956.44;6097451;22;97385;-36
2024/04/01 06:51:35;;;;;;;0.63;0.57;;;15.10;99.90;;;15.47;58.99;98953.06;6093126;22;98294;-36
2024/04/01 06:54:02;;;;;;;1.20;0.70;;;15.00;99.90;;;15.60;57.05;98964.41;6086514;22;97846;-36
2024/04/01 06:56:28;;;;;;;1.40;0.73;;;15.20;99.90;;;15.60;57.57;98972.38;6093340;22;97591;-35
2024/04/01 06:58:53;;;;;;;0.80;0.77;;;15.20;99.90;;;15.44;60.37;98964.81;6073511;22;97540;-35
2024/04/01 07:01:19;;;;;;;0.63;0.53;;;15.10;99.90;;;15.42;60.05;98971.22;6089231;22;116844;-36
2024/04/01 07:03:45;;;;;;;0.80;0.50;;;15.10;99.90;;;15.41;59.65;98964.22;6092231;22;105858;-37
2024/04/01 07:06:11;;;;;;;0.83;0.47;;;15.00;99.90;;;15.41;60.17;98975.69;6093446;22;98879;-36
2024/04/01 07:08:36;;;;;;;1.10;0.70;;;15.00;99.90;;;15.42;61.20;98981.84;6056091;22;97640;-36
2024/04/01 07:11:03;;;;;;;1.10;0.50;;;15.00;99.90;;;15.37;61.38;98995.50;6105957;22;107159;-36
2024/04/01 07:13:29;;;;;;;0.43;0.40;;;15.00;99.90;;;15.45;58.24;98986.91;6098376;22;99284;-35
2024/04/01 07:15:56;;;;;;;0.30;0.20;;;15.10;99.90;;;15.57;57.37;98975.25;6060424;22;106224;-37
2024/04/01 07:18:24;;;;;;;0.43;0.23;;;15.20;99.90;;;15.64;57.01;98976.50;6106075;22;101312;-36
2024/04/01 07:20:52;;;;;;;1.00;0.60;;;15.40;99.90;;;15.73;56.73;98981.03;6097479;22;106475;-34
2024/04/01 07:23:18;;;;;;;0.80;0.60;;;15.50;99.90;;;15.75;56.91;98983.56;6090899;22;99042;-37
2024/04/01 07:25:45;;;;;;;0.40;0.40;;;15.50;99.90;;;15.75;57.30;99003.00;6044272;22;97535;-35
2024/04/01 07:28:14;;;;;;;2.30;0.30;;;15.60;99.90;;;15.83;56.34;99007.69;6095207;22;98230;-36
2024/04/01 07:30:40;;;;;;;0.90;0.40;;;15.70;99.90;;;15.91;56.04;98999.06;6063110;22;97915;-37
2024/04/01 07:33:05;;;;;;;0.73;0.37;;;15.70;99.90;;;15.95;56.18;99003.19;6085658;22;103636;-36
2024/04/01 07:35:32;;;;;;;0.20;0.13;;;15.80;99.90;;;15.89;57.49;98995.69;6110540;22;104036;-38
2024/04/01 07:37:58;;;;;;;0.97;0.43;;;15.80;99.90;;;15.72;58.13;98979.34;6091928;22;97672;-35
2024/04/01 07:40:26;;;;;;;0.63;0.33;;;15.70;99.90;;;15.57;59.18;98969.94;6093032;22;98328;-36
2024/04/01 07:42:55;;;;;;;0.93;0.53;;;15.40;99.90;;;15.49;59.54;98983.03;6081449;22;97521;-35
2024/04/01 07:45:27;;;;;;;0.63;0.30;;;15.20;99.90;;;15.45;58.39;99005.50;6071024;22;102768;-35
2024/04/01 07:47:52;;;;;;;0.80;0.50;;;15.10;99.90;;;15.61;56.99;99008.59;6080273;22;97548;-37
2024/04/01 07:50:19;;;;;;;0.70;0.57;;;15.40;99.90;;;15.56;58.36;99026.72;6093690;22;110354;-47
2024/04/01 07:52:44;;;;;;;2.07;0.30;;;15.40;99.90;;;15.58;58.65;99030.09;6094300;22;97633;-36
2024/04/01 07:55:22;;;;;;;0.47;0.40;;;15.40;99.90;;;15.70;56.95;99023.81;6090839;22;107048;-37
2024/04/01 07:57:47;;;;;;;0.70;0.40;;;15.50;99.90;;;15.66;58.93;99032.19;6039522;22;103960;-36
2024/04/01 08:00:13;;;;;;;0.40;0.40;;;15.50;99.90;;;15.76;57.00;99036.59;6108535;22;107576;-35
2024/04/01 08:02:40;;;;;;;0.63;0.20;;;15.50;99.90;;;15.85;56.64;99036.81;6067134;22;101606;-35
2024/04/01 08:05:06;;;;;;;1.00;0.60;;;15.70;99.90;;;15.94;56.13;99036.91;6111953;22;97553;-34
2024/04/01 08:07:32;;;;;;;0.60;0.40;;;15.80;99.90;;;16.00;55.91;99040.84;6084026;22;97449;-37
2024/04/01 08:09:58;;;;;;;0.67;0.30;;;15.90;99.90;;;15.96;56.76;99039.44;6115407;22;118389;-38
2024/04/01 08:12:23;;;;;;;1.27;0.57;;;15.90;99.90;;;16.04;55.75;99048.44;6086013;22;120524;-36
2024/04/01 08:14:49;;;;;;;1.10;0.30;;;15.90;99.90;;;16.09;55.55;99052.53;6101686;22;104425;-37
2024/04/01 08:17:15;;;;;;;0.50;0.40;;;15.90;99.90;;;16.15;55.41;99052.88;6112948;22;101797;-35
2024/04/01 08:19:47;;;;;;;0.37;0.30;;;16.10;99.90;;;16.18;55.23;99049.94;6104755;22;104578;-36
2024/04/01 08:22:14;;;;;;;0.90;0.50;;;16.10;99.90;;;16.18;55.34;99060.56;6109260;22;97500;-35
2024/04/01 08:24:43;;;;;;;1.40;0.80;;;16.10;99.90;;;16.23;54.99;99069.03;6096493;22;97387;-35
2024/04/01 08:27:14;;;;;;;0.60;0.50;;;16.10;99.90;;;16.23;54.98;99063.72;6094073;22;100950;-36
2024/04/01 08:29:40;;;;;;;1.20;0.70;;;16.10;99.90;;;16.25;54.95;99064.44;6096634;22;102916;-35
2024/04/01 08:32:06;;;;;;;0.87;0.60;;;16.20;99.90;;;16.25;55.24;99067.09;6108000;22;101483;-36
2024/04/01 08:34:32;;;;;;;2.40;0.50;;;16.20;99.90;;;16.24;55.06;99065.41;6093756;22;97367;-36
2024/04/01 08:36:58;;;;;;;0.40;0.40;;;16.20;99.90;;;16.20;55.54;99069.31;6105361;22;99424;-37
2024/04/01 08:39:23;;;;;;;0.60;0.60;;;16.10;99.90;;;16.23;55.24;99069.03;6072865;22;117461;-35
2024/04/01 08:42:01;;;;;;;0.93;0.60;;;16.10;99.90;;;16.25;55.15;99076.88;6056691;22;126140;-37
2024/04/01 08:44:28;;;;;;;1.90;0.40;;;16.20;99.90;;;16.26;55.51;99073.25;6092485;22;102025;-35
2024/04/01 08:46:54;;;;;;;1.07;0.70;;;16.20;99.90;;;16.29;55.07;99073.81;6094302;22;97358;-36
2024/04/01 08:49:52;;;;;;;0.83;0.60;;;16.20;99.90;;;16.33;54.66;99085.03;6086185;22;112771;-42
2024/04/01 08:52:25;;;;;;;1.00;0.70;;;16.30;99.90;;;16.31;54.81;99077.19;6068076;22;101661;-35
2024/04/01 08:54:57;;;;;;;0.67;0.60;;;16.30;99.90;;;16.32;54.94;99084.22;5857848;22;98226;-36
2024/04/01 08:57:26;;;;;;;0.70;0.70;;;16.30;99.90;;;16.30;55.13;99088.81;6028396;22;98303;-35
2024/04/01 08:59:52;;;;;;;1.10;0.83;;;16.20;99.90;;;16.27;55.24;99083.75;6035821;22;120122;-36
2024/04/01 09:02:18;;;;;;;2.67;0.83;;;16.20;99.90;;;16.07;58.22;99089.91;6032322;22;98658;-36
2024/04/01 09:04:44;;;;;;;2.97;0.77;;;16.00;99.90;;;16.11;56.91;99091.34;6064485;22;100339;-37
2024/04/01 09:07:14;;;;;;;0.80;0.70;;;15.90;99.90;;;16.04;56.26;99098.13;6082167;22;97816;-37
2024/04/01 09:09:40;;;;;;;0.87;0.70;;;15.70;99.90;;;15.92;58.82;99107.13;6033199;22;102676;-37
2024/04/01 09:12:07;;;;;;;2.67;0.90;;;15.60;99.90;;;15.88;56.68;99110.97;6045272;22;98395;-37
2024/04/01 09:14:36;;;;;;;2.13;1.17;;;15.50;99.90;;;15.69;60.35;99114.31;6000213;22;97561;-37
2024/04/01 09:17:02;;;;;;;1.03;0.93;;;15.40;99.90;;;15.79;56.83;99119.72;6048883;22;98325;-36
2024/04/01 09:19:33;;;;;;;1.10;1.00;;;15.50;99.90;;;15.73;58.53;99119.25;6029843;22;104282;-36
2024/04/01 09:22:01;;;;;;;1.30;0.87;;;15.40;99.90;;;15.74;57.45;99117.44;6047127;22;107000;-34
2024/04/01 09:24:28;;;;;;;1.53;0.90;;;15.50;99.90;;;15.59;59.28;99116.84;6069977;22;97496;-37
2024/04/01 09:27:01;;;;;;;1.57;0.60;;;15.40;99.90;;;15.03;62.20;99116.00;6044620;22;100840;-36
2024/04/01 09:29:27;;;;;;;2.40;0.90;;;15.00;99.90;;;15.06;60.89;99124.59;6054948;22;99283;-38
2024/04/01 09:31:55;;;;;;;0.93;0.87;;;14.90;99.90;;;15.06;61.49;99129.06;6008599;22;102799;-37
2024/04/01 09:34:24;;;;;;;0.80;0.63;;;14.90;99.90;;;15.12;59.60;99126.75;6003066;22;98434;-35
2024/04/01 09:36:50;;;;;;;1.37;0.90;;;14.90;99.90;;;14.78;62.45;99140.97;5976051;22;103571;-36
2024/04/01 09:39:16;;;;;;;1.03;0.60;;;14.90;99.90;;;14.65;63.65;99140.22;6026505;22;99810;-36
2024/04/01 09:41:47;;;;;;;0.80;0.77;;;14.60;99.90;;;14.69;62.96;99141.66;6017185;22;115027;-37
2024/04/01 09:44:16;;;;;;;1.00;0.80;;;14.70;99.90;;;14.59;64.14;99149.47;6023879;22;101501;-35
2024/04/01 09:46:44;;;;;;;3.20;0.77;;;14.60;99.90;;;14.38;65.40;99143.97;6082733;22;98267;-35
2024/04/01 09:49:11;;;;;;;0.90;0.90;;;14.50;99.90;;;14.09;66.78;99142.63;6050726;22;103934;-36
2024/04/01 09:51:38;;;;;;;0.83;0.80;;;14.20;99.90;;;14.45;62.55;99144.34;6079555;22;104288;-35
2024/04/01 09:54:06;;;;;;;1.30;0.97;;;14.30;99.90;;;14.56;63.24;99158.50;6070784;22;101358;-37
2024/04/01 09:56:58;;;;;;;1.20;1.10;;;14.50;99.90;;;14.51;62.75;99155.38;6044124;22;98680;-35
2024/04/01 09:59:54;;;;;;;4.20;1.17;;;14.50;99.90;;;14.22;66.53;99156.69;6007045;22;101600;-35
2024/04/01 10:03:06;;;;;;;1.97;0.90;;;14.40;99.90;;;14.04;67.20;99160.69;6044202;22;101195;-37
2024/04/01 10:06:15;;;;;;;1.67;1.40;;;14.20;99.90;;;14.10;67.02;99165.53;6082098;22;97400;-38
2024/04/01 10:09:32;;;;;;;1.50;1.33;;;14.20;99.90;;;14.23;65.38;99167.16;6037146;22;102251;-36
2024/04/01 10:12:07;;;;;;;2.07;1.73;;;14.20;99.90;;;14.13;66.03;99170.59;6037755;22;106070;-36
2024/04/01 10:15:04;;;;;;;2.20;1.40;;;14.30;99.90;;;14.29;64.54;99182.59;5946516;22;98086;-46
2024/04/01 10:17:30;;;;;;;2.27;1.10;;;14.30;99.90;;;14.20;64.51;99182.47;6081464;22;99196;-36
2024/04/01 10:20:48;;;;;;;1.63;1.37;;;14.30;99.90;;;14.26;65.38;99189.94;6068542;22;100041;-37